createdAt,value
2023-03-26T00:01:29.540Z,98967.13
2023-03-26T00:03:58.481Z,98970.88
2023-03-26T00:06:28.664Z,98967.47
2023-03-26T00:08:58.029Z,98971.59
2023-03-26T00:11:29.104Z,98975.13
2023-03-26T00:13:57.912Z,98976.22
2023-03-26T00:16:27.780Z,98962.66
2023-03-26T00:18:55.593Z,98972.94
2023-03-26T00:21:27.837Z,98974.78
2023-03-26T00:23:56.408Z,98968.09
2023-03-26T00:26:24.009Z,98970.19
2023-03-26T00:28:52.843Z,98966.53
2023-03-26T00:31:20.616Z,98960.69
2023-03-26T00:33:48.088Z,98964.41
2023-03-26T00:36:17.677Z,98965.69
2023-03-26T00:38:46.801Z,98957.72
2023-03-26T00:41:22.755Z,98957.78
2023-03-26T00:43:51.990Z,98951.78
2023-03-26T00:46:21.238Z,98949.91
2023-03-26T00:48:48.670Z,98941.66
2023-03-26T00:51:18.099Z,98943.09
2023-03-26T00:53:47.434Z,98939.16
2023-03-26T00:56:15.234Z,98938.47
2023-03-26T00:58:43.029Z,98939.47
2023-03-26T01:01:14.450Z,98932.91
2023-03-26T01:03:56.755Z,98939.56
2023-03-26T01:06:27.956Z,98938.31
2023-03-26T01:08:59.944Z,98929.25
2023-03-26T01:11:30.908Z,98928.16
2023-03-26T01:14:01.593Z,98915.91
2023-03-26T01:16:36.999Z,98917.63
2023-03-26T01:19:06.113Z,98915.91
2023-03-26T01:21:34.611Z,98920.22
2023-03-26T01:24:05.075Z,98917.19
2023-03-26T01:26:44.596Z,98912.81
2023-03-26T01:29:20.660Z,98912.19
2023-03-26T01:31:57.659Z,98910.56
2023-03-26T01:34:34.036Z,98908.19
2023-03-26T01:37:17.575Z,98907.19
2023-03-26T01:39:53.231Z,98907.44
2023-03-26T01:42:29.242Z,98908.56
2023-03-26T01:45:03.987Z,98896.84
2023-03-26T01:47:33.046Z,98896.06
2023-03-26T01:50:00.509Z,98895.34
2023-03-26T01:52:28.024Z,98894.31
2023-03-26T01:54:57.720Z,98883.19
2023-03-26T01:57:35.427Z,98881.50
2023-03-26T02:00:18.010Z,98882.94
2023-03-26T02:03:06.031Z,98873.34
2023-03-26T02:05:38.930Z,98871.25
2023-03-26T02:08:11.826Z,98871.63
2023-03-26T02:10:44.039Z,98866.06
2023-03-26T02:13:11.738Z,98870.69
2023-03-26T02:15:40.503Z,98858.69
2023-03-26T02:18:10.706Z,98857.00
2023-03-26T02:20:38.349Z,98848.41
2023-03-26T02:23:06.589Z,98849.50
2023-03-26T02:25:35.710Z,98852.19
2023-03-26T02:28:05.371Z,98846.13
2023-03-26T02:30:33.571Z,98841.13
2023-03-26T02:33:01.141Z,98837.63
2023-03-26T02:35:28.698Z,98837.34
2023-03-26T02:37:56.204Z,98834.09
2023-03-26T02:40:24.900Z,98829.56
2023-03-26T02:42:52.358Z,98834.59
2023-03-26T02:45:21.187Z,98832.69
2023-03-26T02:47:50.975Z,98821.75
2023-03-26T02:50:19.172Z,98823.19
2023-03-26T02:52:48.960Z,98821.19
2023-03-26T02:55:16.524Z,98814.06
2023-03-26T02:57:44.253Z,98809.13
2023-03-26T03:00:16.199Z,98805.69
2023-03-26T03:02:47.751Z,98808.94
2023-03-26T03:05:17.915Z,98807.09
2023-03-26T03:07:46.554Z,98805.88
2023-03-26T03:10:15.556Z,98797.06
2023-03-26T03:12:43.468Z,98790.97
2023-03-26T03:15:13.063Z,98791.06
2023-03-26T03:17:41.456Z,98780.16
2023-03-26T03:20:11.006Z,98781.19
2023-03-26T03:22:38.714Z,98765.03
2023-03-26T03:25:08.932Z,98770.25
2023-03-26T03:27:39.229Z,98757.44
2023-03-26T03:30:08.127Z,98764.44
2023-03-26T03:32:35.635Z,98758.47
2023-03-26T03:35:03.366Z,98755.91
2023-03-26T03:37:32.406Z,98762.16
2023-03-26T03:39:59.894Z,98754.78
2023-03-26T03:42:28.174Z,98762.38
2023-03-26T03:44:55.731Z,98756.50
2023-03-26T03:47:23.226Z,98745.09
2023-03-26T03:49:51.106Z,98750.41
2023-03-26T03:52:19.029Z,98753.25
2023-03-26T03:54:47.835Z,98747.47
2023-03-26T03:57:15.860Z,98746.03
2023-03-26T03:59:47.524Z,98748.50
2023-03-26T04:02:21.164Z,98747.34
2023-03-26T04:04:50.190Z,98740.22
2023-03-26T04:07:17.805Z,98740.34
2023-03-26T04:09:45.498Z,98744.88
2023-03-26T04:12:14.861Z,98735.56
2023-03-26T04:14:42.617Z,98737.97
2023-03-26T04:17:10.215Z,98740.34
2023-03-26T04:19:38.348Z,98729.69
2023-03-26T04:22:06.245Z,98725.69
2023-03-26T04:24:38.160Z,98718.09
2023-03-26T04:27:08.799Z,98707.75
2023-03-26T04:29:42.809Z,98704.47
2023-03-26T04:32:19.425Z,98700.22
2023-03-26T04:34:47.898Z,98696.59
2023-03-26T04:37:21.044Z,98694.59
2023-03-26T04:39:50.002Z,98691.44
2023-03-26T04:42:19.805Z,98682.50
2023-03-26T04:44:50.697Z,98680.25
2023-03-26T04:47:18.751Z,98685.59
2023-03-26T04:49:47.229Z,98674.56
2023-03-26T04:52:15.592Z,98678.16
2023-03-26T04:54:45.343Z,98677.13
2023-03-26T04:57:18.767Z,98665.06
2023-03-26T04:59:46.256Z,98663.94
2023-03-26T05:02:15.495Z,98657.84
2023-03-26T05:04:43.724Z,98664.31
2023-03-26T05:07:12.541Z,98651.47
2023-03-26T05:09:40.020Z,98649.75
2023-03-26T05:12:07.610Z,98649.97
2023-03-26T05:14:36.077Z,98649.09
2023-03-26T05:17:05.879Z,98638.28
2023-03-26T05:19:34.914Z,98645.75
2023-03-26T05:22:02.422Z,98646.59
2023-03-26T05:24:29.859Z,98647.50
2023-03-26T05:26:57.326Z,98634.56
2023-03-26T05:29:25.036Z,98634.25
2023-03-26T05:31:52.506Z,98632.91
2023-03-26T05:34:20.707Z,98628.88
2023-03-26T05:36:49.535Z,98622.56
2023-03-26T05:39:17.121Z,98625.38
2023-03-26T05:41:44.582Z,98614.59
2023-03-26T05:44:12.018Z,98612.31
2023-03-26T05:46:39.484Z,98613.59
2023-03-26T05:49:06.898Z,98608.09
2023-03-26T05:51:34.379Z,98601.44
2023-03-26T05:54:03.130Z,98595.84
2023-03-26T05:56:30.615Z,98594.97
2023-03-26T05:58:58.318Z,98590.63
2023-03-26T06:01:25.906Z,98584.91
2023-03-26T06:03:53.742Z,98582.59
2023-03-26T06:06:22.129Z,98576.50
2023-03-26T06:09:01.623Z,98571.53
2023-03-26T06:11:32.631Z,98565.28
2023-03-26T06:14:00.599Z,98562.72
2023-03-26T06:16:28.557Z,98559.84
2023-03-26T06:18:57.119Z,98551.00
2023-03-26T06:21:25.412Z,98558.78
2023-03-26T06:23:52.915Z,98555.56
2023-03-26T06:26:20.626Z,98547.47
2023-03-26T06:28:49.435Z,98558.31
2023-03-26T06:31:19.026Z,98554.50
2023-03-26T06:33:46.966Z,98550.41
2023-03-26T06:36:14.573Z,98554.25
2023-03-26T06:38:42.070Z,98553.41
2023-03-26T06:41:09.508Z,98552.66
2023-03-26T06:43:37.737Z,98551.47
2023-03-26T06:46:06.910Z,98555.09
2023-03-26T06:48:34.442Z,98555.97
2023-03-26T06:51:01.871Z,98557.69
2023-03-26T06:53:29.329Z,98555.97
2023-03-26T06:55:56.779Z,98555.56
2023-03-26T06:58:24.442Z,98553.47
2023-03-26T07:00:54.778Z,98548.13
2023-03-26T07:03:24.398Z,98547.75
2023-03-26T07:05:51.829Z,98547.88
2023-03-26T07:08:19.300Z,98541.28
2023-03-26T07:10:47.559Z,98543.97
2023-03-26T07:13:16.052Z,98537.44
2023-03-26T07:15:43.529Z,98531.25
2023-03-26T07:18:11.302Z,98533.16
2023-03-26T07:20:42.285Z,98530.53
2023-03-26T07:23:11.807Z,98520.41
2023-03-26T07:25:40.144Z,98521.25
2023-03-26T07:28:18.548Z,98522.13
2023-03-26T07:30:59.613Z,98518.72
2023-03-26T07:33:33.429Z,98506.47
2023-03-26T07:36:16.147Z,98503.94
2023-03-26T07:38:54.325Z,98508.72
2023-03-26T07:41:30.782Z,98504.91
2023-03-26T07:44:15.831Z,98494.75
2023-03-26T07:46:43.856Z,98491.03
2023-03-26T07:49:13.608Z,98492.22
2023-03-26T07:51:43.013Z,98493.94
2023-03-26T07:54:11.833Z,98487.41
2023-03-26T07:56:43.755Z,98483.53
2023-03-26T07:59:22.094Z,98471.88
2023-03-26T08:02:00.755Z,98478.38
2023-03-26T08:04:59.605Z,98472.16
2023-03-26T08:07:41.337Z,98473.41
2023-03-26T08:10:16.838Z,98469.59
2023-03-26T08:12:54.210Z,98463.22
2023-03-26T08:15:29.381Z,98466.97
2023-03-26T08:18:00.639Z,98459.31
2023-03-26T08:20:41.692Z,98457.03
2023-03-26T08:23:20.867Z,98459.22
2023-03-26T08:25:59.164Z,98457.97
2023-03-26T08:28:39.002Z,98462.16
2023-03-26T08:31:08.814Z,98456.75
2023-03-26T08:33:38.287Z,98457.88
2023-03-26T08:36:06.627Z,98454.34
2023-03-26T08:38:35.505Z,98453.47
2023-03-26T08:41:36.575Z,98455.47
2023-03-26T08:44:37.309Z,98451.56
2023-03-26T08:47:47.739Z,98451.34
2023-03-26T08:50:45.265Z,98451.81
2023-03-26T08:53:50.547Z,98451.66
2023-03-26T08:56:27.288Z,98451.34
2023-03-26T08:59:21.724Z,98446.44
2023-03-26T09:02:28.969Z,98447.84
2023-03-26T09:05:49.918Z,98443.88
2023-03-26T09:08:37.225Z,98446.34
2023-03-26T09:11:37.640Z,98445.47
2023-03-26T09:14:25.559Z,98445.38
2023-03-26T09:17:31.364Z,98443.03
2023-03-26T09:20:34.443Z,98437.06
2023-03-26T09:23:33.210Z,98444.41
2023-03-26T09:26:10.649Z,98442.19
2023-03-26T09:29:09.114Z,98440.81
2023-03-26T09:32:06.851Z,98438.22
2023-03-26T09:34:44.510Z,98439.31
2023-03-26T09:37:21.019Z,98440.69
2023-03-26T09:40:05.941Z,98439.94
2023-03-26T09:42:44.026Z,98436.75
2023-03-26T09:45:42.493Z,98431.41
2023-03-26T09:48:36.886Z,98429.31
2023-03-26T09:51:20.317Z,98433.00
2023-03-26T09:54:11.335Z,98423.75
2023-03-26T09:56:53.046Z,98425.22
2023-03-26T09:59:44.203Z,98425.41
2023-03-26T10:02:45.647Z,98420.97
2023-03-26T10:05:56.274Z,98428.31
2023-03-26T10:08:38.000Z,98426.69
2023-03-26T10:11:13.384Z,98421.78
2023-03-26T10:13:53.525Z,98420.72
2023-03-26T10:16:32.863Z,98415.75
2023-03-26T10:19:24.654Z,98418.00
2023-03-26T10:22:00.880Z,98411.81
2023-03-26T10:24:49.258Z,98403.91
2023-03-26T10:27:28.124Z,98410.25
2023-03-26T10:30:13.393Z,98407.91
2023-03-26T10:32:52.826Z,98409.41
2023-03-26T10:35:34.365Z,98410.13
2023-03-26T10:38:16.330Z,98414.41
2023-03-26T10:40:56.156Z,98414.69
2023-03-26T10:44:07.268Z,98405.84
2023-03-26T10:46:48.134Z,98407.78
2023-03-26T10:49:41.975Z,98411.41
2023-03-26T10:52:15.874Z,98413.03
2023-03-26T10:54:55.690Z,98413.91
2023-03-26T10:57:36.638Z,98412.63
2023-03-26T11:00:15.307Z,98404.09
2023-03-26T11:02:55.539Z,98402.81
2023-03-26T11:05:42.388Z,98402.41
2023-03-26T11:08:18.046Z,98396.78
2023-03-26T11:10:51.826Z,98398.78
2023-03-26T11:13:30.566Z,98401.03
2023-03-26T11:16:04.160Z,98399.22
2023-03-26T11:18:41.110Z,98395.78
2023-03-26T11:21:18.747Z,98397.91
2023-03-26T11:24:06.140Z,98391.75
2023-03-26T11:26:44.071Z,98394.00
2023-03-26T11:29:31.721Z,98390.16
2023-03-26T11:32:06.569Z,98393.81
2023-03-26T11:34:38.463Z,98382.00
2023-03-26T11:37:12.399Z,98383.16
2023-03-26T11:39:49.279Z,98386.34
2023-03-26T11:42:19.188Z,98389.31
2023-03-26T11:44:52.098Z,98380.41
2023-03-26T11:47:24.559Z,98388.06
2023-03-26T11:49:56.181Z,98381.75
2023-03-26T11:52:24.237Z,98385.06
2023-03-26T11:54:54.065Z,98381.41
2023-03-26T11:57:27.483Z,98382.69
2023-03-26T11:59:59.344Z,98376.47
2023-03-26T12:02:32.418Z,98377.25
2023-03-26T12:05:15.589Z,98371.78
2023-03-26T12:07:51.220Z,98379.38
2023-03-26T12:10:26.501Z,98368.38
2023-03-26T12:12:55.014Z,98378.38
2023-03-26T12:15:23.022Z,98373.03
2023-03-26T12:17:53.386Z,98376.19
2023-03-26T12:20:34.614Z,98364.38
2023-03-26T12:23:03.305Z,98367.78
2023-03-26T12:25:33.462Z,98369.34
2023-03-26T12:28:03.378Z,98359.34
2023-03-26T12:30:33.722Z,98365.78
2023-03-26T12:33:04.817Z,98360.75
2023-03-26T12:35:34.863Z,98361.66
2023-03-26T12:38:19.066Z,98365.03
2023-03-26T12:40:48.575Z,98359.53
2023-03-26T12:44:54.323Z,98355.47
2023-03-26T12:47:58.860Z,98356.59
2023-03-26T12:49:18.793Z,98353.28
2023-03-26T12:51:51.733Z,98352.41
2023-03-26T12:54:40.467Z,98362.41
2023-03-26T12:57:20.464Z,98353.47
2023-03-26T13:00:00.205Z,98356.66
2023-03-26T13:02:53.967Z,98348.19
2023-03-26T13:05:38.743Z,98353.94
2023-03-26T13:08:27.406Z,98352.66
2023-03-26T13:11:02.473Z,98344.69
2023-03-26T13:13:56.267Z,98350.88
2023-03-26T13:16:31.759Z,98342.97
2023-03-26T13:19:07.112Z,98341.03
2023-03-26T13:21:47.826Z,98341.03
2023-03-26T13:24:29.675Z,98353.25
2023-03-26T13:27:10.837Z,98348.56
2023-03-26T13:29:56.413Z,98349.53
2023-03-26T13:32:29.684Z,98352.44
2023-03-26T13:35:13.685Z,98353.19
2023-03-26T13:37:47.768Z,98344.41
2023-03-26T13:40:25.712Z,98346.16
2023-03-26T13:43:12.056Z,98341.28
2023-03-26T13:45:52.943Z,98344.84
2023-03-26T13:48:25.023Z,98345.75
2023-03-26T13:51:00.356Z,98349.09
2023-03-26T13:53:35.051Z,98351.13
2023-03-26T13:56:02.748Z,98350.34
2023-03-26T13:58:37.221Z,98349.66
2023-03-26T14:01:10.867Z,98347.25
2023-03-26T14:03:49.938Z,98353.69
2023-03-26T14:06:28.698Z,98349.22
2023-03-26T14:09:02.639Z,98354.22
2023-03-26T14:11:44.429Z,98356.69
2023-03-26T14:14:17.265Z,98361.19
2023-03-26T14:16:51.950Z,98368.19
2023-03-26T14:19:41.083Z,98360.38
2023-03-26T14:22:18.720Z,98369.44
2023-03-26T14:25:09.517Z,98360.59
2023-03-26T14:27:52.092Z,98370.28
2023-03-26T14:30:42.359Z,98375.22
2023-03-26T14:33:28.077Z,98371.69
2023-03-26T14:36:01.206Z,98380.03
2023-03-26T14:38:48.290Z,98371.38
2023-03-26T14:41:24.606Z,98378.81
2023-03-26T14:44:48.538Z,98377.03
2023-03-26T14:47:18.627Z,98378.16
2023-03-26T14:50:21.416Z,98387.22
2023-03-26T14:52:51.399Z,98389.59
2023-03-26T14:55:41.902Z,98389.78
2023-03-26T14:58:57.910Z,98396.97
2023-03-26T15:01:27.604Z,98395.72
2023-03-26T15:04:51.669Z,98404.97
2023-03-26T15:07:54.537Z,98403.25
2023-03-26T15:11:07.633Z,98412.56
2023-03-26T15:14:13.983Z,98413.88
2023-03-26T15:17:25.897Z,98422.22
2023-03-26T15:20:25.920Z,98421.03
2023-03-26T15:23:23.898Z,98433.56
2023-03-26T15:26:37.072Z,98432.28
2023-03-26T15:29:35.382Z,98439.75
2023-03-26T15:32:35.410Z,98452.31
2023-03-26T15:35:32.748Z,98445.28
2023-03-26T15:38:34.969Z,98455.72
2023-03-26T15:41:17.570Z,98457.00
2023-03-26T15:44:24.953Z,98464.44
2023-03-26T15:46:58.134Z,98461.25
2023-03-26T15:49:37.329Z,98474.22
2023-03-26T15:52:14.063Z,98477.44
2023-03-26T15:54:54.630Z,98474.00
2023-03-26T15:57:30.466Z,98484.03
2023-03-26T16:00:15.165Z,98482.97
2023-03-26T16:02:53.479Z,98489.78
2023-03-26T16:05:41.841Z,98493.50
2023-03-26T16:08:20.932Z,98496.28
2023-03-26T16:10:52.710Z,98501.25
2023-03-26T16:13:36.628Z,98502.97
2023-03-26T16:16:25.296Z,98507.44
2023-03-26T16:18:59.113Z,98508.44
2023-03-26T16:21:44.483Z,98519.38
2023-03-26T16:24:30.327Z,98520.31
2023-03-26T16:27:31.928Z,98520.88
2023-03-26T16:30:31.396Z,98530.44
2023-03-26T16:33:10.330Z,98531.44
2023-03-26T16:35:56.829Z,98535.97
2023-03-26T16:38:27.194Z,98542.25
2023-03-26T16:41:03.869Z,98549.88
2023-03-26T16:43:44.868Z,98553.53
2023-03-26T16:46:25.113Z,98554.03
2023-03-26T16:48:58.610Z,98562.63
2023-03-26T16:51:42.744Z,98571.53
2023-03-26T16:54:22.048Z,98568.69
2023-03-26T16:56:59.817Z,98581.00
2023-03-26T16:59:45.599Z,98593.94
2023-03-26T17:02:36.615Z,98594.22
2023-03-26T17:05:19.572Z,98611.78
2023-03-26T17:08:01.091Z,98611.13
2023-03-26T17:10:36.029Z,98618.88
2023-03-26T17:13:08.900Z,98620.88
2023-03-26T17:15:47.907Z,98624.06
2023-03-26T17:18:28.503Z,98634.53
2023-03-26T17:21:03.312Z,98628.06
2023-03-26T17:23:46.036Z,98646.34
2023-03-26T17:26:22.512Z,98648.06
2023-03-26T17:29:09.913Z,98651.53
2023-03-26T17:31:44.639Z,98657.63
2023-03-26T17:34:54.887Z,98658.41
2023-03-26T17:37:38.004Z,98671.22
2023-03-26T17:40:46.902Z,98676.53
2023-03-26T17:43:44.671Z,98683.47
2023-03-26T17:46:31.665Z,98694.47
2023-03-26T17:49:03.968Z,98696.06
2023-03-26T17:51:40.189Z,98703.31
2023-03-26T17:54:14.483Z,98700.81
2023-03-26T17:56:42.626Z,98713.94
2023-03-26T17:59:23.089Z,98715.84
2023-03-26T18:01:55.304Z,98710.22
2023-03-26T18:04:32.622Z,98720.59
2023-03-26T18:07:20.618Z,98731.88
2023-03-26T18:10:09.280Z,98739.78
2023-03-26T18:12:56.207Z,98750.28
2023-03-26T18:15:35.178Z,98761.75
2023-03-26T18:18:11.845Z,98760.22
2023-03-26T18:20:42.573Z,98766.59
2023-03-26T18:23:12.090Z,98772.75
2023-03-26T18:25:40.925Z,98780.69
2023-03-26T18:28:08.437Z,98781.91
2023-03-26T18:30:47.121Z,98784.00
2023-03-26T18:33:16.312Z,98793.06
2023-03-26T18:35:47.199Z,98800.91
2023-03-26T18:38:18.516Z,98806.63
2023-03-26T18:41:03.178Z,98804.91
2023-03-26T18:43:35.153Z,98812.19
2023-03-26T18:46:04.599Z,98821.31
2023-03-26T18:48:32.323Z,98833.41
2023-03-26T18:51:05.693Z,98834.84
2023-03-26T18:53:38.653Z,98835.13
2023-03-26T18:56:20.083Z,98841.50
2023-03-26T18:58:52.306Z,98853.34
2023-03-26T19:01:25.847Z,98853.78
2023-03-26T19:03:55.146Z,98850.63
2023-03-26T19:06:25.883Z,98853.88
2023-03-26T19:08:53.812Z,98862.63
2023-03-26T19:11:21.451Z,98862.28
2023-03-26T19:13:59.348Z,98867.00
2023-03-26T19:16:33.590Z,98872.72
2023-03-26T19:19:03.617Z,98878.63
2023-03-26T19:21:33.845Z,98883.41
2023-03-26T19:24:02.420Z,98882.31
2023-03-26T19:26:30.331Z,98892.78
2023-03-26T19:29:00.603Z,98892.91
2023-03-26T19:31:33.497Z,98903.84
2023-03-26T19:34:04.834Z,98905.19
2023-03-26T19:36:34.776Z,98907.25
2023-03-26T19:39:14.742Z,98920.59
2023-03-26T19:41:52.002Z,98914.59
2023-03-26T19:44:25.667Z,98923.88
2023-03-26T19:46:54.529Z,98929.25
2023-03-26T19:49:30.775Z,98922.84
2023-03-26T19:52:14.773Z,98933.78
2023-03-26T19:54:59.220Z,98938.28
2023-03-26T19:57:29.326Z,98941.09
2023-03-26T19:59:57.258Z,98955.78
2023-03-26T20:02:25.579Z,98948.06
2023-03-26T20:04:53.659Z,98959.38
2023-03-26T20:07:35.502Z,98964.69
2023-03-26T20:10:05.245Z,98969.03
2023-03-26T20:12:32.703Z,98983.88
2023-03-26T20:15:01.494Z,98983.09
2023-03-26T20:17:30.625Z,98984.59
2023-03-26T20:19:58.127Z,98990.38
2023-03-26T20:22:26.912Z,99001.19
2023-03-26T20:24:54.571Z,98997.69
2023-03-26T20:27:22.301Z,99009.78
2023-03-26T20:29:49.830Z,99015.16
2023-03-26T20:32:24.279Z,99020.66
2023-03-26T20:34:54.066Z,99020.19
2023-03-26T20:37:21.583Z,99024.56
2023-03-26T20:39:50.528Z,99027.53
2023-03-26T20:42:18.028Z,99036.88
2023-03-26T20:44:45.531Z,99030.38
2023-03-26T20:47:14.128Z,99047.44
2023-03-26T20:49:41.884Z,99055.00
2023-03-26T20:52:11.543Z,99057.88
2023-03-26T20:54:38.997Z,99061.59
2023-03-26T20:57:07.873Z,99075.19
2023-03-26T20:59:35.763Z,99068.72
2023-03-26T21:02:03.368Z,99070.25
2023-03-26T21:04:32.012Z,99083.88
2023-03-26T21:07:06.952Z,99085.94
2023-03-26T21:09:35.926Z,99091.88
2023-03-26T21:12:06.886Z,99093.34
2023-03-26T21:14:41.128Z,99099.19
2023-03-26T21:17:14.693Z,99110.44
2023-03-26T21:19:42.786Z,99112.53
2023-03-26T21:22:25.575Z,99122.03
2023-03-26T21:25:04.289Z,99132.78
2023-03-26T21:27:39.085Z,99136.88
2023-03-26T21:30:14.166Z,99146.72
2023-03-26T21:32:42.679Z,99154.41
2023-03-26T21:35:13.160Z,99161.34
2023-03-26T21:37:42.638Z,99162.97
2023-03-26T21:40:16.482Z,99167.53
2023-03-26T21:42:45.610Z,99166.16
2023-03-26T21:45:15.337Z,99175.88
2023-03-26T21:47:43.889Z,99183.50
2023-03-26T21:50:14.811Z,99185.47
2023-03-26T21:52:47.627Z,99193.16
2023-03-26T21:55:17.512Z,99200.28
2023-03-26T21:58:02.048Z,99201.16
2023-03-26T22:00:43.099Z,99206.03
2023-03-26T22:03:19.395Z,99215.41
2023-03-26T22:05:54.233Z,99220.03
2023-03-26T22:08:28.461Z,99223.13
2023-03-26T22:10:56.269Z,99226.44
2023-03-26T22:13:23.836Z,99244.00
2023-03-26T22:15:52.753Z,99238.69
2023-03-26T22:18:21.430Z,99236.31
2023-03-26T22:20:49.116Z,99245.97
2023-03-26T22:23:18.002Z,99245.75
2023-03-26T22:25:45.680Z,99255.13
2023-03-26T22:28:13.880Z,99264.66
2023-03-26T22:30:41.448Z,99269.72
2023-03-26T22:33:11.843Z,99276.56
2023-03-26T22:35:39.692Z,99280.66
2023-03-26T22:38:07.358Z,99288.00
2023-03-26T22:40:34.864Z,99284.19
2023-03-26T22:43:02.462Z,99286.00
2023-03-26T22:45:30.028Z,99288.72
2023-03-26T22:48:04.030Z,99297.50
2023-03-26T22:50:33.600Z,99305.03
2023-03-26T22:53:01.137Z,99316.38
2023-03-26T22:55:30.047Z,99318.78
2023-03-26T22:57:57.846Z,99314.97
2023-03-26T23:00:26.226Z,99323.31
2023-03-26T23:02:55.682Z,99319.25
2023-03-26T23:05:23.430Z,99330.88
2023-03-26T23:07:53.125Z,99328.69
2023-03-26T23:10:21.568Z,99332.38
2023-03-26T23:12:49.553Z,99340.09
2023-03-26T23:15:16.971Z,99339.16
2023-03-26T23:17:44.449Z,99350.13
2023-03-26T23:20:21.982Z,99349.66
2023-03-26T23:22:49.414Z,99361.34
2023-03-26T23:25:18.481Z,99369.63
2023-03-26T23:27:45.891Z,99373.88
2023-03-26T23:30:14.970Z,99382.09
2023-03-26T23:32:42.578Z,99381.66
2023-03-26T23:35:11.066Z,99394.53
2023-03-26T23:37:38.716Z,99388.84
2023-03-26T23:40:10.025Z,99399.59
2023-03-26T23:42:39.086Z,99404.25
2023-03-26T23:45:08.313Z,99402.38
2023-03-26T23:47:36.122Z,99408.78
2023-03-26T23:50:05.370Z,99413.13
2023-03-26T23:52:32.833Z,99410.16
2023-03-26T23:55:00.633Z,99424.66
2023-03-26T23:57:28.183Z,99425.56
2023-03-26T23:59:59.334Z,99429.25
